sensor_id;sensor_type;location;lat;lon;timestamp;P1;durP1;ratioP1;P2;durP2;ratioP2
61373;SDS011;47242;48.158;-1.586;2023-02-01T05:31:19;4.13;;;1.75;;
61373;SDS011;47242;48.158;-1.586;2023-02-01T05:33:45;4.80;;;1.73;;
61373;SDS011;47242;48.158;-1.586;2023-02-01T05:36:10;9.68;;;2.63;;
61373;SDS011;47242;48.158;-1.586;2023-02-01T05:38:36;7.38;;;2.00;;
61373;SDS011;47242;48.158;-1.586;2023-02-01T05:41:02;8.73;;;2.63;;
61373;SDS011;47242;48.158;-1.586;2023-02-01T05:43:27;12.43;;;2.38;;
61373;SDS011;47242;48.158;-1.586;2023-02-01T05:45:53;10.90;;;2.08;;
61373;SDS011;47242;48.158;-1.586;2023-02-01T05:48:19;7.72;;;2.22;;
61373;SDS011;47242;48.158;-1.586;2023-02-01T05:50:45;10.18;;;2.60;;
61373;SDS011;47242;48.158;-1.586;2023-02-01T05:53:11;4.40;;;2.58;;
61373;SDS011;47242;48.158;-1.586;2023-02-01T05:55:37;8.93;;;2.80;;
61373;SDS011;47242;48.158;-1.586;2023-02-01T05:58:03;7.75;;;2.05;;
61373;SDS011;47242;48.158;-1.586;2023-02-01T06:03:16;5.60;;;2.80;;
61373;SDS011;47242;48.158;-1.586;2023-02-01T06:05:45;8.15;;;2.33;;
61373;SDS011;47242;48.158;-1.586;2023-02-01T06:08:12;9.10;;;2.50;;
61373;SDS011;47242;48.158;-1.586;2023-02-01T06:10:38;11.02;;;2.45;;
61373;SDS011;47242;48.158;-1.586;2023-02-01T06:13:04;5.75;;;2.05;;
61373;SDS011;47242;48.158;-1.586;2023-02-01T06:15:29;7.03;;;2.58;;
61373;SDS011;47242;48.158;-1.586;2023-02-01T06:17:56;6.13;;;2.00;;
61373;SDS011;47242;48.158;-1.586;2023-02-01T06:20:24;4.53;;;2.30;;
61373;SDS011;47242;48.158;-1.586;2023-02-01T06:22:50;12.90;;;2.30;;
61373;SDS011;47242;48.158;-1.586;2023-02-01T06:25:17;9.38;;;2.85;;
61373;SDS011;47242;48.158;-1.586;2023-02-01T06:27:44;11.65;;;2.50;;
61373;SDS011;47242;48.158;-1.586;2023-02-01T06:30:10;15.13;;;2.35;;
61373;SDS011;47242;48.158;-1.586;2023-02-01T06:32:40;13.77;;;2.78;;
61373;SDS011;47242;48.158;-1.586;2023-02-01T06:35:07;6.60;;;2.35;;
61373;SDS011;47242;48.158;-1.586;2023-02-01T06:37:36;10.00;;;2.57;;
61373;SDS011;47242;48.158;-1.586;2023-02-01T06:40:02;9.15;;;2.03;;
61373;SDS011;47242;48.158;-1.586;2023-02-01T06:42:29;7.95;;;2.17;;
61373;SDS011;47242;48.158;-1.586;2023-02-01T06:44:54;10.30;;;1.88;;
61373;SDS011;47242;48.158;-1.586;2023-02-01T06:47:20;10.73;;;2.72;;
61373;SDS011;47242;48.158;-1.586;2023-02-01T06:49:46;8.55;;;2.22;;
61373;SDS011;47242;48.158;-1.586;2023-02-01T06:52:11;9.07;;;2.33;;
61373;SDS011;47242;48.158;-1.586;2023-02-01T06:54:37;11.75;;;2.90;;
61373;SDS011;47242;48.158;-1.586;2023-02-01T06:57:03;10.60;;;2.85;;
61373;SDS011;47242;48.158;-1.586;2023-02-01T06:59:29;5.38;;;2.35;;
61373;SDS011;47242;48.158;-1.586;2023-02-01T07:01:54;9.50;;;2.88;;
61373;SDS011;47242;48.158;-1.586;2023-02-01T07:04:20;7.07;;;2.63;;
61373;SDS011;47242;48.158;-1.586;2023-02-01T07:06:45;7.38;;;2.75;;
61373;SDS011;47242;48.158;-1.586;2023-02-01T07:09:11;8.38;;;2.25;;
61373;SDS011;47242;48.158;-1.586;2023-02-01T07:11:38;6.95;;;2.40;;
61373;SDS011;47242;48.158;-1.586;2023-02-01T07:14:08;11.60;;;2.77;;
61373;SDS011;47242;48.158;-1.586;2023-02-01T07:16:34;7.20;;;2.20;;
61373;SDS011;47242;48.158;-1.586;2023-02-01T07:19:00;7.53;;;3.15;;
61373;SDS011;47242;48.158;-1.586;2023-02-01T07:21:26;15.60;;;2.97;;
61373;SDS011;47242;48.158;-1.586;2023-02-01T07:23:53;7.55;;;2.47;;
61373;SDS011;47242;48.158;-1.586;2023-02-01T07:26:22;7.80;;;2.53;;
61373;SDS011;47242;48.158;-1.586;2023-02-01T07:28:48;11.07;;;2.38;;
61373;SDS011;47242;48.158;-1.586;2023-02-01T07:31:15;7.70;;;2.45;;
61373;SDS011;47242;48.158;-1.586;2023-02-01T07:33:43;9.30;;;2.42;;
61373;SDS011;47242;48.158;-1.586;2023-02-01T07:36:10;14.82;;;3.38;;
61373;SDS011;47242;48.158;-1.586;2023-02-01T07:38:38;9.55;;;2.83;;
61373;SDS011;47242;48.158;-1.586;2023-02-01T07:41:04;6.45;;;2.90;;
61373;SDS011;47242;48.158;-1.586;2023-02-01T07:43:37;6.30;;;2.13;;
61373;SDS011;47242;48.158;-1.586;2023-02-01T07:46:03;6.15;;;2.30;;
61373;SDS011;47242;48.158;-1.586;2023-02-01T07:48:30;9.05;;;2.33;;
61373;SDS011;47242;48.158;-1.586;2023-02-01T07:50:58;5.63;;;2.45;;
61373;SDS011;47242;48.158;-1.586;2023-02-01T07:53:32;6.78;;;2.90;;
61373;SDS011;47242;48.158;-1.586;2023-02-01T07:55:58;8.60;;;2.80;;
61373;SDS011;47242;48.158;-1.586;2023-02-01T07:58:24;6.70;;;2.53;;
61373;SDS011;47242;48.158;-1.586;2023-02-01T08:00:51;8.10;;;2.60;;
61373;SDS011;47242;48.158;-1.586;2023-02-01T08:03:36;9.18;;;2.65;;
61373;SDS011;47242;48.158;-1.586;2023-02-01T08:06:02;16.92;;;3.38;;
61373;SDS011;47242;48.158;-1.586;2023-02-01T08:08:28;12.27;;;3.08;;
61373;SDS011;47242;48.158;-1.586;2023-02-01T08:11:00;12.30;;;2.50;;
61373;SDS011;47242;48.158;-1.586;2023-02-01T08:13:27;9.55;;;2.67;;
61373;SDS011;47242;48.158;-1.586;2023-02-01T08:15:57;11.77;;;2.88;;
61373;SDS011;47242;48.158;-1.586;2023-02-01T08:18:27;10.15;;;3.13;;
61373;SDS011;47242;48.158;-1.586;2023-02-01T08:20:54;6.47;;;2.65;;
61373;SDS011;47242;48.158;-1.586;2023-02-01T08:23:20;10.25;;;2.60;;
61373;SDS011;47242;48.158;-1.586;2023-02-01T08:25:46;6.95;;;2.83;;
61373;SDS011;47242;48.158;-1.586;2023-02-01T08:28:12;13.98;;;2.45;;
61373;SDS011;47242;48.158;-1.586;2023-02-01T08:30:38;11.38;;;2.80;;
61373;SDS011;47242;48.158;-1.586;2023-02-01T08:33:06;8.35;;;2.80;;
61373;SDS011;47242;48.158;-1.586;2023-02-01T08:35:34;15.55;;;3.25;;
61373;SDS011;47242;48.158;-1.586;2023-02-01T08:38:01;9.10;;;2.95;;
61373;SDS011;47242;48.158;-1.586;2023-02-01T08:40:27;14.48;;;3.80;;
61373;SDS011;47242;48.158;-1.586;2023-02-01T08:42:53;13.57;;;3.40;;
61373;SDS011;47242;48.158;-1.586;2023-02-01T08:47:51;13.57;;;3.20;;
61373;SDS011;47242;48.158;-1.586;2023-02-01T08:50:17;9.20;;;3.70;;
61373;SDS011;47242;48.158;-1.586;2023-02-01T08:52:44;7.00;;;3.70;;
61373;SDS011;47242;48.158;-1.586;2023-02-01T08:55:10;18.55;;;4.13;;
61373;SDS011;47242;48.158;-1.586;2023-02-01T08:57:37;14.30;;;3.83;;
61373;SDS011;47242;48.158;-1.586;2023-02-01T09:00:04;10.88;;;3.05;;
61373;SDS011;47242;48.158;-1.586;2023-02-01T09:02:31;12.27;;;3.97;;
61373;SDS011;47242;48.158;-1.586;2023-02-01T09:04:57;9.98;;;2.95;;
61373;SDS011;47242;48.158;-1.586;2023-02-01T09:07:22;11.20;;;2.83;;
61373;SDS011;47242;48.158;-1.586;2023-02-01T09:09:48;14.57;;;3.83;;
61373;SDS011;47242;48.158;-1.586;2023-02-01T09:12:14;11.65;;;3.33;;
61373;SDS011;47242;48.158;-1.586;2023-02-01T09:14:39;10.07;;;3.05;;
61373;SDS011;47242;48.158;-1.586;2023-02-01T09:17:05;5.97;;;2.28;;
61373;SDS011;47242;48.158;-1.586;2023-02-01T09:19:31;13.80;;;2.90;;
61373;SDS011;47242;48.158;-1.586;2023-02-01T09:21:57;13.55;;;2.70;;
61373;SDS011;47242;48.158;-1.586;2023-02-01T09:24:23;11.95;;;2.78;;
61373;SDS011;47242;48.158;-1.586;2023-02-01T09:26:49;12.27;;;2.72;;
61373;SDS011;47242;48.158;-1.586;2023-02-01T09:29:15;10.23;;;3.00;;
61373;SDS011;47242;48.158;-1.586;2023-02-01T09:31:41;7.55;;;3.00;;
61373;SDS011;47242;48.158;-1.586;2023-02-01T09:34:06;14.02;;;3.55;;
61373;SDS011;47242;48.158;-1.586;2023-02-01T09:36:32;11.73;;;3.17;;
61373;SDS011;47242;48.158;-1.586;2023-02-01T09:38:58;11.25;;;3.20;;
61373;SDS011;47242;48.158;-1.586;2023-02-01T09:41:34;17.67;;;3.13;;
61373;SDS011;47242;48.158;-1.586;2023-02-01T09:47:00;13.55;;;2.95;;
61373;SDS011;47242;48.158;-1.586;2023-02-01T09:49:28;12.20;;;3.03;;
61373;SDS011;47242;48.158;-1.586;2023-02-01T09:51:57;11.95;;;4.03;;
61373;SDS011;47242;48.158;-1.586;2023-02-01T09:54:26;13.60;;;4.10;;
61373;SDS011;47242;48.158;-1.586;2023-02-01T09:57:06;14.02;;;3.85;;
61373;SDS011;47242;48.158;-1.586;2023-02-01T09:59:42;18.60;;;3.15;;
61373;SDS011;47242;48.158;-1.586;2023-02-01T10:02:15;12.05;;;3.65;;
61373;SDS011;47242;48.158;-1.586;2023-02-01T10:04:46;9.15;;;3.35;;
61373;SDS011;47242;48.158;-1.586;2023-02-01T10:07:37;6.45;;;2.75;;
61373;SDS011;47242;48.158;-1.586;2023-02-01T10:10:12;8.85;;;2.83;;
61373;SDS011;47242;48.158;-1.586;2023-02-01T10:21:03;14.40;;;3.58;;
61373;SDS011;47242;48.158;-1.586;2023-02-01T10:26:29;10.73;;;3.05;;
61373;SDS011;47242;48.158;-1.586;2023-02-01T10:28:59;13.70;;;3.97;;
61373;SDS011;47242;48.158;-1.586;2023-02-01T10:31:28;18.02;;;3.75;;
61373;SDS011;47242;48.158;-1.586;2023-02-01T10:33:57;11.38;;;3.00;;
61373;SDS011;47242;48.158;-1.586;2023-02-01T10:36:30;9.25;;;3.15;;
61373;SDS011;47242;48.158;-1.586;2023-02-01T10:39:01;8.80;;;2.83;;
61373;SDS011;47242;48.158;-1.586;2023-02-01T10:41:31;16.15;;;3.17;;
61373;SDS011;47242;48.158;-1.586;2023-02-01T10:44:00;6.47;;;2.63;;
61373;SDS011;47242;48.158;-1.586;2023-02-01T10:46:29;11.20;;;3.33;;
61373;SDS011;47242;48.158;-1.586;2023-02-01T10:48:55;9.60;;;3.47;;
61373;SDS011;47242;48.158;-1.586;2023-02-01T10:51:47;14.07;;;4.45;;
61373;SDS011;47242;48.158;-1.586;2023-02-01T10:54:31;12.90;;;2.97;;
61373;SDS011;47242;48.158;-1.586;2023-02-01T10:57:03;12.60;;;4.00;;
61373;SDS011;47242;48.158;-1.586;2023-02-01T10:59:36;9.80;;;3.33;;
61373;SDS011;47242;48.158;-1.586;2023-02-01T11:05:00;12.18;;;2.97;;
61373;SDS011;47242;48.158;-1.586;2023-02-01T11:07:35;7.60;;;3.42;;
61373;SDS011;47242;48.158;-1.586;2023-02-01T11:10:01;9.68;;;2.70;;
61373;SDS011;47242;48.158;-1.586;2023-02-01T11:12:28;10.48;;;2.80;;
61373;SDS011;47242;48.158;-1.586;2023-02-01T11:15:19;9.65;;;3.03;;
61373;SDS011;47242;48.158;-1.586;2023-02-01T11:17:48;10.18;;;3.13;;
61373;SDS011;47242;48.158;-1.586;2023-02-01T11:20:42;19.02;;;3.13;;
61373;SDS011;47242;48.158;-1.586;2023-02-01T11:23:17;8.20;;;2.85;;
61373;SDS011;47242;48.158;-1.586;2023-02-01T11:28:35;7.18;;;2.83;;
61373;SDS011;47242;48.158;-1.586;2023-02-01T11:31:05;9.15;;;2.90;;
61373;SDS011;47242;48.158;-1.586;2023-02-01T11:33:35;7.95;;;2.97;;
61373;SDS011;47242;48.158;-1.586;2023-02-01T11:36:13;9.07;;;2.92;;
61373;SDS011;47242;48.158;-1.586;2023-02-01T11:38:45;11.20;;;3.50;;
61373;SDS011;47242;48.158;-1.586;2023-02-01T11:41:32;13.32;;;2.75;;
61373;SDS011;47242;48.158;-1.586;2023-02-01T11:43:59;9.02;;;2.75;;
61373;SDS011;47242;48.158;-1.586;2023-02-01T11:46:30;13.77;;;2.70;;
61373;SDS011;47242;48.158;-1.586;2023-02-01T11:48:57;14.60;;;2.83;;
61373;SDS011;47242;48.158;-1.586;2023-02-01T11:51:49;10.48;;;3.08;;
61373;SDS011;47242;48.158;-1.586;2023-02-01T11:55:01;8.02;;;2.60;;
61373;SDS011;47242;48.158;-1.586;2023-02-01T12:25:05;14.13;;;2.33;;
61373;SDS011;47242;48.158;-1.586;2023-02-01T12:30:43;9.93;;;2.60;;
61373;SDS011;47242;48.158;-1.586;2023-02-01T12:36:32;10.35;;;3.20;;
61373;SDS011;47242;48.158;-1.586;2023-02-01T12:39:21;12.00;;;3.10;;
61373;SDS011;47242;48.158;-1.586;2023-02-01T12:41:53;12.25;;;3.42;;
61373;SDS011;47242;48.158;-1.586;2023-02-01T12:44:43;12.23;;;2.55;;
61373;SDS011;47242;48.158;-1.586;2023-02-01T12:47:32;9.82;;;2.53;;
61373;SDS011;47242;48.158;-1.586;2023-02-01T12:52:46;9.90;;;3.00;;
61373;SDS011;47242;48.158;-1.586;2023-02-01T12:55:24;8.90;;;2.33;;
61373;SDS011;47242;48.158;-1.586;2023-02-01T12:58:04;12.68;;;2.58;;
61373;SDS011;47242;48.158;-1.586;2023-02-01T13:00:36;5.68;;;2.10;;
61373;SDS011;47242;48.158;-1.586;2023-02-01T13:03:14;6.13;;;2.10;;
61373;SDS011;47242;48.158;-1.586;2023-02-01T13:08:43;7.97;;;1.95;;
61373;SDS011;47242;48.158;-1.586;2023-02-01T13:11:33;12.57;;;2.65;;
61373;SDS011;47242;48.158;-1.586;2023-02-01T13:14:14;7.25;;;2.30;;
61373;SDS011;47242;48.158;-1.586;2023-02-01T13:17:44;5.95;;;2.40;;
61373;SDS011;47242;48.158;-1.586;2023-02-01T13:19:59;6.95;;;1.70;;
61373;SDS011;47242;48.158;-1.586;2023-02-01T13:22:40;7.32;;;2.55;;
61373;SDS011;47242;48.158;-1.586;2023-02-01T13:25:16;5.97;;;2.03;;
61373;SDS011;47242;48.158;-1.586;2023-02-01T13:28:06;7.40;;;2.15;;
61373;SDS011;47242;48.158;-1.586;2023-02-01T13:36:45;6.63;;;2.30;;
61373;SDS011;47242;48.158;-1.586;2023-02-01T13:42:03;9.88;;;2.58;;
61373;SDS011;47242;48.158;-1.586;2023-02-01T13:44:39;8.30;;;2.70;;
61373;SDS011;47242;48.158;-1.586;2023-02-01T13:49:52;8.50;;;2.22;;
61373;SDS011;47242;48.158;-1.586;2023-02-01T13:52:37;12.68;;;3.03;;
61373;SDS011;47242;48.158;-1.586;2023-02-01T13:57:46;10.20;;;3.13;;
61373;SDS011;47242;48.158;-1.586;2023-02-01T14:11:00;10.23;;;3.10;;
61373;SDS011;47242;48.158;-1.586;2023-02-01T14:18:56;6.45;;;2.70;;
61373;SDS011;47242;48.158;-1.586;2023-02-01T14:31:51;9.07;;;2.40;;
61373;SDS011;47242;48.158;-1.586;2023-02-01T14:42:20;9.60;;;2.63;;
61373;SDS011;47242;48.158;-1.586;2023-02-01T14:50:21;8.88;;;3.53;;
61373;SDS011;47242;48.158;-1.586;2023-02-01T14:55:54;9.27;;;2.85;;
61373;SDS011;47242;48.158;-1.586;2023-02-01T14:58:46;12.23;;;2.78;;
61373;SDS011;47242;48.158;-1.586;2023-02-01T15:01:32;10.02;;;2.70;;
61373;SDS011;47242;48.158;-1.586;2023-02-01T15:06:33;14.25;;;2.90;;
61373;SDS011;47242;48.158;-1.586;2023-02-01T15:14:40;12.48;;;3.63;;
61373;SDS011;47242;48.158;-1.586;2023-02-01T15:17:23;10.25;;;3.78;;
61373;SDS011;47242;48.158;-1.586;2023-02-01T15:20:03;10.35;;;3.38;;
61373;SDS011;47242;48.158;-1.586;2023-02-01T15:22:35;11.40;;;3.75;;
61373;SDS011;47242;48.158;-1.586;2023-02-01T15:25:01;7.55;;;2.97;;
61373;SDS011;47242;48.158;-1.586;2023-02-01T15:27:28;14.57;;;5.05;;
61373;SDS011;47242;48.158;-1.586;2023-02-01T15:30:04;9.57;;;3.40;;
61373;SDS011;47242;48.158;-1.586;2023-02-01T15:32:35;7.95;;;3.10;;
61373;SDS011;47242;48.158;-1.586;2023-02-01T15:35:06;11.02;;;3.33;;
61373;SDS011;47242;48.158;-1.586;2023-02-01T15:40:56;5.43;;;2.92;;
61373;SDS011;47242;48.158;-1.586;2023-02-01T15:43:31;30.48;;;12.07;;
61373;SDS011;47242;48.158;-1.586;2023-02-01T15:46:29;13.27;;;4.85;;
61373;SDS011;47242;48.158;-1.586;2023-02-01T15:49:01;16.52;;;4.43;;
61373;SDS011;47242;48.158;-1.586;2023-02-01T15:51:29;9.50;;;3.25;;
61373;SDS011;47242;48.158;-1.586;2023-02-01T15:54:07;12.27;;;3.47;;
61373;SDS011;47242;48.158;-1.586;2023-02-01T15:56:44;12.77;;;3.72;;
61373;SDS011;47242;48.158;-1.586;2023-02-01T15:59:18;10.60;;;3.35;;
61373;SDS011;47242;48.158;-1.586;2023-02-01T16:01:46;10.73;;;3.25;;
61373;SDS011;47242;48.158;-1.586;2023-02-01T16:04:21;8.32;;;3.10;;
61373;SDS011;47242;48.158;-1.586;2023-02-01T16:06:53;9.15;;;3.63;;
61373;SDS011;47242;48.158;-1.586;2023-02-01T16:09:21;10.52;;;3.10;;
61373;SDS011;47242;48.158;-1.586;2023-02-01T16:11:57;17.42;;;3.25;;
61373;SDS011;47242;48.158;-1.586;2023-02-01T16:14:24;9.80;;;3.47;;
61373;SDS011;47242;48.158;-1.586;2023-02-01T16:16:51;13.85;;;3.55;;
61373;SDS011;47242;48.158;-1.586;2023-02-01T16:19:18;12.40;;;3.80;;
61373;SDS011;47242;48.158;-1.586;2023-02-01T16:21:44;16.30;;;4.03;;
61373;SDS011;47242;48.158;-1.586;2023-02-01T16:24:11;10.07;;;4.18;;
61373;SDS011;47242;48.158;-1.586;2023-02-01T16:26:36;9.23;;;3.65;;
61373;SDS011;47242;48.158;-1.586;2023-02-01T16:29:03;14.68;;;3.70;;
61373;SDS011;47242;48.158;-1.586;2023-02-01T16:31:33;11.93;;;4.70;;
61373;SDS011;47242;48.158;-1.586;2023-02-01T16:34:01;14.40;;;4.60;;
61373;SDS011;47242;48.158;-1.586;2023-02-01T16:36:27;13.32;;;3.42;;
61373;SDS011;47242;48.158;-1.586;2023-02-01T16:38:53;13.57;;;4.03;;
61373;SDS011;47242;48.158;-1.586;2023-02-01T16:41:21;13.82;;;4.65;;
61373;SDS011;47242;48.158;-1.586;2023-02-01T16:43:52;11.65;;;4.18;;
61373;SDS011;47242;48.158;-1.586;2023-02-01T16:46:20;14.70;;;5.10;;
61373;SDS011;47242;48.158;-1.586;2023-02-01T16:48:56;10.80;;;5.38;;
61373;SDS011;47242;48.158;-1.586;2023-02-01T16:51:24;15.70;;;6.10;;
61373;SDS011;47242;48.158;-1.586;2023-02-01T16:53:53;11.67;;;4.13;;
61373;SDS011;47242;48.158;-1.586;2023-02-01T16:56:23;8.75;;;4.80;;
61373;SDS011;47242;48.158;-1.586;2023-02-01T16:58:53;13.02;;;4.97;;
61373;SDS011;47242;48.158;-1.586;2023-02-01T17:01:19;16.73;;;5.25;;
61373;SDS011;47242;48.158;-1.586;2023-02-01T17:03:45;18.17;;;5.50;;
61373;SDS011;47242;48.158;-1.586;2023-02-01T17:09:01;10.07;;;3.90;;
61373;SDS011;47242;48.158;-1.586;2023-02-01T17:11:28;14.25;;;5.43;;
61373;SDS011;47242;48.158;-1.586;2023-02-01T17:14:19;15.03;;;4.90;;
61373;SDS011;47242;48.158;-1.586;2023-02-01T17:16:45;15.18;;;4.45;;
61373;SDS011;47242;48.158;-1.586;2023-02-01T17:19:13;9.25;;;4.05;;
61373;SDS011;47242;48.158;-1.586;2023-02-01T17:21:46;13.77;;;4.43;;
61373;SDS011;47242;48.158;-1.586;2023-02-01T17:24:18;11.52;;;3.92;;
61373;SDS011;47242;48.158;-1.586;2023-02-01T17:26:45;14.23;;;4.55;;
61373;SDS011;47242;48.158;-1.586;2023-02-01T17:29:11;15.43;;;5.30;;
61373;SDS011;47242;48.158;-1.586;2023-02-01T17:31:42;8.15;;;4.25;;
61373;SDS011;47242;48.158;-1.586;2023-02-01T17:34:10;12.23;;;4.78;;
61373;SDS011;47242;48.158;-1.586;2023-02-01T17:36:38;16.70;;;5.10;;
61373;SDS011;47242;48.158;-1.586;2023-02-01T17:39:06;13.38;;;4.35;;
61373;SDS011;47242;48.158;-1.586;2023-02-01T17:41:33;15.43;;;4.97;;
61373;SDS011;47242;48.158;-1.586;2023-02-01T17:43:59;10.25;;;4.15;;
61373;SDS011;47242;48.158;-1.586;2023-02-01T17:46:25;10.98;;;4.38;;
61373;SDS011;47242;48.158;-1.586;2023-02-01T17:48:52;13.13;;;4.97;;
61373;SDS011;47242;48.158;-1.586;2023-02-01T17:51:22;21.60;;;5.28;;
61373;SDS011;47242;48.158;-1.586;2023-02-01T17:53:51;9.35;;;3.67;;
61373;SDS011;47242;48.158;-1.586;2023-02-01T17:56:18;14.23;;;4.65;;
61373;SDS011;47242;48.158;-1.586;2023-02-01T17:58:46;18.45;;;4.53;;
61373;SDS011;47242;48.158;-1.586;2023-02-01T18:01:17;5.68;;;3.53;;
61373;SDS011;47242;48.158;-1.586;2023-02-01T18:03:44;12.98;;;4.80;;
61373;SDS011;47242;48.158;-1.586;2023-02-01T18:06:11;16.08;;;4.55;;
61373;SDS011;47242;48.158;-1.586;2023-02-01T18:08:41;13.00;;;5.28;;
61373;SDS011;47242;48.158;-1.586;2023-02-01T18:11:12;15.35;;;5.60;;
61373;SDS011;47242;48.158;-1.586;2023-02-01T18:13:42;12.68;;;5.90;;
61373;SDS011;47242;48.158;-1.586;2023-02-01T18:16:27;13.35;;;5.90;;
61373;SDS011;47242;48.158;-1.586;2023-02-01T18:18:55;13.75;;;6.13;;
61373;SDS011;47242;48.158;-1.586;2023-02-01T18:21:28;15.35;;;6.18;;
61373;SDS011;47242;48.158;-1.586;2023-02-01T18:24:04;18.35;;;6.30;;
61373;SDS011;47242;48.158;-1.586;2023-02-01T18:26:37;15.90;;;6.75;;
61373;SDS011;47242;48.158;-1.586;2023-02-01T18:29:03;22.83;;;8.07;;
61373;SDS011;47242;48.158;-1.586;2023-02-01T18:31:29;21.38;;;6.30;;
61373;SDS011;47242;48.158;-1.586;2023-02-01T18:33:57;15.57;;;6.07;;
61373;SDS011;47242;48.158;-1.586;2023-02-01T18:36:23;9.23;;;4.93;;
61373;SDS011;47242;48.158;-1.586;2023-02-01T18:38:49;9.52;;;4.65;;
61373;SDS011;47242;48.158;-1.586;2023-02-01T18:41:17;27.52;;;10.40;;
61373;SDS011;47242;48.158;-1.586;2023-02-01T18:43:45;27.38;;;9.45;;
61373;SDS011;47242;48.158;-1.586;2023-02-01T18:46:11;16.20;;;6.63;;
61373;SDS011;47242;48.158;-1.586;2023-02-01T18:48:38;21.85;;;6.85;;
61373;SDS011;47242;48.158;-1.586;2023-02-01T18:51:04;18.27;;;6.35;;
61373;SDS011;47242;48.158;-1.586;2023-02-01T18:53:30;12.52;;;4.80;;
61373;SDS011;47242;48.158;-1.586;2023-02-01T18:55:56;12.35;;;4.85;;
61373;SDS011;47242;48.158;-1.586;2023-02-01T18:58:23;13.68;;;4.57;;
61373;SDS011;47242;48.158;-1.586;2023-02-01T19:00:50;12.68;;;4.55;;
61373;SDS011;47242;48.158;-1.586;2023-02-01T19:03:17;11.32;;;4.13;;
61373;SDS011;47242;48.158;-1.586;2023-02-01T19:05:45;9.43;;;4.85;;
61373;SDS011;47242;48.158;-1.586;2023-02-01T19:08:12;9.20;;;4.80;;
61373;SDS011;47242;48.158;-1.586;2023-02-01T19:10:37;15.73;;;5.68;;
61373;SDS011;47242;48.158;-1.586;2023-02-01T19:13:07;10.02;;;4.43;;
61373;SDS011;47242;48.158;-1.586;2023-02-01T19:15:37;7.13;;;4.88;;
61373;SDS011;47242;48.158;-1.586;2023-02-01T19:18:04;10.05;;;4.40;;
61373;SDS011;47242;48.158;-1.586;2023-02-01T19:20:31;9.80;;;5.45;;
61373;SDS011;47242;48.158;-1.586;2023-02-01T19:22:56;16.65;;;8.40;;
61373;SDS011;47242;48.158;-1.586;2023-02-01T19:25:23;18.63;;;8.63;;
61373;SDS011;47242;48.158;-1.586;2023-02-01T19:27:50;16.80;;;7.82;;
61373;SDS011;47242;48.158;-1.586;2023-02-01T19:30:17;13.18;;;7.00;;
61373;SDS011;47242;48.158;-1.586;2023-02-01T19:32:43;13.30;;;6.22;;
61373;SDS011;47242;48.158;-1.586;2023-02-01T19:35:10;12.35;;;5.68;;
61373;SDS011;47242;48.158;-1.586;2023-02-01T19:37:37;13.73;;;5.10;;
61373;SDS011;47242;48.158;-1.586;2023-02-01T19:40:10;12.13;;;5.45;;
61373;SDS011;47242;48.158;-1.586;2023-02-01T19:42:38;12.20;;;5.22;;
61373;SDS011;47242;48.158;-1.586;2023-02-01T19:45:05;11.95;;;5.47;;
61373;SDS011;47242;48.158;-1.586;2023-02-01T19:47:32;15.60;;;7.28;;
61373;SDS011;47242;48.158;-1.586;2023-02-01T19:49:58;12.32;;;7.88;;
61373;SDS011;47242;48.158;-1.586;2023-02-01T19:52:25;23.70;;;8.68;;
61373;SDS011;47242;48.158;-1.586;2023-02-01T19:54:51;13.88;;;6.75;;
61373;SDS011;47242;48.158;-1.586;2023-02-01T19:57:16;17.48;;;6.45;;
61373;SDS011;47242;48.158;-1.586;2023-02-01T19:59:42;13.77;;;5.47;;
61373;SDS011;47242;48.158;-1.586;2023-02-01T20:02:14;17.25;;;6.00;;
61373;SDS011;47242;48.158;-1.586;2023-02-01T20:04:40;17.48;;;6.43;;
61373;SDS011;47242;48.158;-1.586;2023-02-01T20:07:06;17.17;;;6.72;;
61373;SDS011;47242;48.158;-1.586;2023-02-01T20:09:35;17.60;;;7.73;;
61373;SDS011;47242;48.158;-1.586;2023-02-01T20:12:02;18.48;;;5.78;;
61373;SDS011;47242;48.158;-1.586;2023-02-01T20:14:28;14.35;;;6.20;;
61373;SDS011;47242;48.158;-1.586;2023-02-01T20:16:54;11.18;;;5.38;;
61373;SDS011;47242;48.158;-1.586;2023-02-01T20:19:20;14.95;;;4.88;;
61373;SDS011;47242;48.158;-1.586;2023-02-01T20:21:46;11.70;;;4.70;;
61373;SDS011;47242;48.158;-1.586;2023-02-01T20:24:13;8.63;;;4.88;;
61373;SDS011;47242;48.158;-1.586;2023-02-01T20:26:42;9.73;;;4.70;;
61373;SDS011;47242;48.158;-1.586;2023-02-01T20:29:08;8.52;;;4.47;;
61373;SDS011;47242;48.158;-1.586;2023-02-01T20:31:34;8.27;;;5.15;;
61373;SDS011;47242;48.158;-1.586;2023-02-01T20:34:00;15.80;;;5.70;;
61373;SDS011;47242;48.158;-1.586;2023-02-01T20:36:27;20.65;;;7.38;;
61373;SDS011;47242;48.158;-1.586;2023-02-01T20:38:54;10.40;;;6.68;;
61373;SDS011;47242;48.158;-1.586;2023-02-01T20:41:20;13.07;;;5.10;;
61373;SDS011;47242;48.158;-1.586;2023-02-01T20:43:46;13.95;;;5.30;;
61373;SDS011;47242;48.158;-1.586;2023-02-01T20:46:12;11.65;;;4.45;;
61373;SDS011;47242;48.158;-1.586;2023-02-01T20:48:42;14.40;;;5.40;;
61373;SDS011;47242;48.158;-1.586;2023-02-01T20:53:35;15.88;;;5.80;;
61373;SDS011;47242;48.158;-1.586;2023-02-01T20:56:01;8.13;;;5.00;;
61373;SDS011;47242;48.158;-1.586;2023-02-01T20:58:28;15.20;;;4.78;;
61373;SDS011;47242;48.158;-1.586;2023-02-01T21:00:53;9.13;;;4.63;;
61373;SDS011;47242;48.158;-1.586;2023-02-01T21:03:19;11.90;;;4.90;;
61373;SDS011;47242;48.158;-1.586;2023-02-01T21:05:46;13.82;;;5.50;;
61373;SDS011;47242;48.158;-1.586;2023-02-01T21:08:16;12.95;;;4.35;;
61373;SDS011;47242;48.158;-1.586;2023-02-01T21:10:43;11.65;;;4.65;;
61373;SDS011;47242;48.158;-1.586;2023-02-01T21:13:19;11.82;;;4.15;;
61373;SDS011;47242;48.158;-1.586;2023-02-01T21:15:44;14.55;;;5.15;;
61373;SDS011;47242;48.158;-1.586;2023-02-01T21:18:11;9.75;;;4.32;;
61373;SDS011;47242;48.158;-1.586;2023-02-01T21:20:38;13.70;;;5.28;;
61373;SDS011;47242;48.158;-1.586;2023-02-01T21:23:03;12.38;;;4.22;;
61373;SDS011;47242;48.158;-1.586;2023-02-01T21:25:29;11.60;;;4.43;;
61373;SDS011;47242;48.158;-1.586;2023-02-01T21:27:55;10.07;;;3.95;;
61373;SDS011;47242;48.158;-1.586;2023-02-01T21:30:21;16.92;;;4.18;;
61373;SDS011;47242;48.158;-1.586;2023-02-01T21:32:47;13.38;;;4.28;;
61373;SDS011;47242;48.158;-1.586;2023-02-01T21:35:14;7.80;;;4.00;;
61373;SDS011;47242;48.158;-1.586;2023-02-01T21:37:41;10.23;;;3.95;;
61373;SDS011;47242;48.158;-1.586;2023-02-01T21:40:07;12.88;;;4.50;;
61373;SDS011;47242;48.158;-1.586;2023-02-01T21:42:33;9.35;;;3.75;;
61373;SDS011;47242;48.158;-1.586;2023-02-01T21:44:59;8.45;;;3.30;;
61373;SDS011;47242;48.158;-1.586;2023-02-01T21:47:26;11.80;;;3.95;;
61373;SDS011;47242;48.158;-1.586;2023-02-01T21:49:52;9.80;;;3.50;;
61373;SDS011;47242;48.158;-1.586;2023-02-01T21:52:18;8.30;;;3.25;;
61373;SDS011;47242;48.158;-1.586;2023-02-01T21:54:44;6.20;;;3.13;;
61373;SDS011;47242;48.158;-1.586;2023-02-01T21:57:10;4.68;;;3.25;;
61373;SDS011;47242;48.158;-1.586;2023-02-01T21:59:39;8.90;;;4.18;;
61373;SDS011;47242;48.158;-1.586;2023-02-01T22:02:09;9.02;;;4.20;;
61373;SDS011;47242;48.158;-1.586;2023-02-01T22:04:39;10.30;;;4.15;;
61373;SDS011;47242;48.158;-1.586;2023-02-01T22:07:07;13.60;;;3.63;;
61373;SDS011;47242;48.158;-1.586;2023-02-01T22:09:33;9.52;;;4.30;;
61373;SDS011;47242;48.158;-1.586;2023-02-01T22:11:58;13.13;;;4.68;;
61373;SDS011;47242;48.158;-1.586;2023-02-01T22:14:24;9.18;;;4.18;;
61373;SDS011;47242;48.158;-1.586;2023-02-01T22:16:50;13.48;;;4.07;;
61373;SDS011;47242;48.158;-1.586;2023-02-01T22:19:15;12.07;;;3.75;;
61373;SDS011;47242;48.158;-1.586;2023-02-01T22:21:42;13.30;;;5.10;;
61373;SDS011;47242;48.158;-1.586;2023-02-01T22:24:10;11.55;;;4.25;;
61373;SDS011;47242;48.158;-1.586;2023-02-01T22:26:39;16.30;;;4.72;;
61373;SDS011;47242;48.158;-1.586;2023-02-01T22:29:06;10.48;;;4.45;;
